sensor_id;sensor_type;location;lat;lon;timestamp;pressure;altitude;pressure_sealevel;temperature;humidity
52319;BME280;38258;51.148;14.068;2023-05-29T00:01:47;98572.28;;;5.42;100.00
52319;BME280;38258;51.148;14.068;2023-05-29T00:04:17;98574.00;;;5.43;100.00
52319;BME280;38258;51.148;14.068;2023-05-29T00:06:47;98595.56;;;5.59;100.00
52319;BME280;38258;51.148;14.068;2023-05-29T00:09:17;98586.09;;;5.50;100.00
52319;BME280;38258;51.148;14.068;2023-05-29T00:11:45;98582.66;;;5.42;100.00
52319;BME280;38258;51.148;14.068;2023-05-29T00:14:16;98584.41;;;5.45;100.00
52319;BME280;38258;51.148;14.068;2023-05-29T00:16:46;98581.84;;;5.37;100.00
52319;BME280;38258;51.148;14.068;2023-05-29T00:19:19;98574.09;;;5.28;100.00
52319;BME280;38258;51.148;14.068;2023-05-29T00:21:46;98575.81;;;5.26;100.00
52319;BME280;38258;51.148;14.068;2023-05-29T00:24:14;98560.31;;;5.10;100.00
52319;BME280;38258;51.148;14.068;2023-05-29T00:26:42;98574.97;;;5.22;100.00
52319;BME280;38258;51.148;14.068;2023-05-29T00:29:09;98562.91;;;5.13;100.00
52319;BME280;38258;51.148;14.068;2023-05-29T00:31:36;98573.25;;;5.18;100.00
52319;BME280;38258;51.148;14.068;2023-05-29T00:38:10;98565.53;;;5.07;100.00
52319;BME280;38258;51.148;14.068;2023-05-29T00:40:37;98562.06;;;5.02;100.00
52319;BME280;38258;51.148;14.068;2023-05-29T00:43:04;98582.81;;;5.09;100.00
52319;BME280;38258;51.148;14.068;2023-05-29T00:45:31;98563.84;;;4.93;100.00
52319;BME280;38258;51.148;14.068;2023-05-29T00:48:01;98568.16;;;4.99;100.00
52319;BME280;38258;51.148;14.068;2023-05-29T00:50:30;98562.13;;;4.89;100.00
52319;BME280;38258;51.148;14.068;2023-05-29T00:52:58;98566.41;;;4.92;100.00
52319;BME280;38258;51.148;14.068;2023-05-29T00:55:35;98585.41;;;4.99;100.00
52319;BME280;38258;51.148;14.068;2023-05-29T00:58:06;98569.06;;;4.83;100.00
52319;BME280;38258;51.148;14.068;2023-05-29T01:00:33;98556.09;;;4.76;100.00
52319;BME280;38258;51.148;14.068;2023-05-29T01:03:03;98571.66;;;4.83;100.00
52319;BME280;38258;51.148;14.068;2023-05-29T01:05:33;98557.84;;;4.68;100.00
52319;BME280;38258;51.148;14.068;2023-05-29T01:08:01;98575.09;;;4.78;100.00
52319;BME280;38258;51.148;14.068;2023-05-29T01:10:30;98581.13;;;4.82;100.00
52319;BME280;38258;51.148;14.068;2023-05-29T01:13:05;98575.09;;;4.78;100.00
52319;BME280;38258;51.148;14.068;2023-05-29T01:15:37;98543.19;;;4.55;100.00
52319;BME280;38258;51.148;14.068;2023-05-29T01:18:15;98563.03;;;4.66;100.00
52319;BME280;38258;51.148;14.068;2023-05-29T01:20:51;98564.75;;;4.66;100.00
52319;BME280;38258;51.148;14.068;2023-05-29T01:23:40;98566.47;;;4.64;100.00
52319;BME280;38258;51.148;14.068;2023-05-29T01:26:21;98576.84;;;4.67;100.00
52319;BME280;38258;51.148;14.068;2023-05-29T01:28:56;98583.75;;;4.65;100.00
52319;BME280;38258;51.148;14.068;2023-05-29T01:31:28;98572.56;;;4.44;100.00
52319;BME280;38258;51.148;14.068;2023-05-29T01:33:58;98564.78;;;4.39;100.00
52319;BME280;38258;51.148;14.068;2023-05-29T01:36:26;98578.59;;;4.43;100.00
52319;BME280;38258;51.148;14.068;2023-05-29T01:38:55;98555.31;;;4.28;100.00
52319;BME280;38258;51.148;14.068;2023-05-29T01:41:26;98563.94;;;4.30;100.00
52319;BME280;38258;51.148;14.068;2023-05-29T01:43:55;98572.53;;;4.39;100.00
52319;BME280;38258;51.148;14.068;2023-05-29T01:46:23;98562.22;;;4.38;100.00
52319;BME280;38258;51.148;14.068;2023-05-29T01:48:51;98573.41;;;4.35;100.00
52319;BME280;38258;51.148;14.068;2023-05-29T01:51:19;98550.13;;;4.09;100.00
52319;BME280;38258;51.148;14.068;2023-05-29T01:53:46;98566.50;;;4.17;100.00
52319;BME280;38258;51.148;14.068;2023-05-29T01:56:15;98570.84;;;4.09;100.00
52319;BME280;38258;51.148;14.068;2023-05-29T01:58:42;98571.69;;;4.05;100.00
52319;BME280;38258;51.148;14.068;2023-05-29T02:01:11;98581.19;;;4.10;100.00
52319;BME280;38258;51.148;14.068;2023-05-29T02:03:38;98569.97;;;4.01;100.00
52319;BME280;38258;51.148;14.068;2023-05-29T02:06:06;98569.97;;;4.02;100.00
52319;BME280;38258;51.148;14.068;2023-05-29T02:08:35;98575.16;;;4.13;100.00
52319;BME280;38258;51.148;14.068;2023-05-29T02:11:02;98559.63;;;4.02;100.00
52319;BME280;38258;51.148;14.068;2023-05-29T02:13:29;98576.00;;;4.04;100.00
52319;BME280;38258;51.148;14.068;2023-05-29T02:15:56;98563.06;;;3.96;100.00
52319;BME280;38258;51.148;14.068;2023-05-29T02:18:25;98578.59;;;4.09;100.00
52319;BME280;38258;51.148;14.068;2023-05-29T02:20:51;98547.50;;;3.84;100.00
52319;BME280;38258;51.148;14.068;2023-05-29T02:23:22;98583.72;;;3.93;100.00
52319;BME280;38258;51.148;14.068;2023-05-29T02:25:50;98562.16;;;3.80;100.00
52319;BME280;38258;51.148;14.068;2023-05-29T02:28:17;98563.00;;;3.78;100.00
52319;BME280;38258;51.148;14.068;2023-05-29T02:31:05;98556.13;;;3.86;100.00
52319;BME280;38258;51.148;14.068;2023-05-29T02:33:49;98571.66;;;3.91;100.00
52319;BME280;38258;51.148;14.068;2023-05-29T02:36:15;98556.09;;;3.67;100.00
52319;BME280;38258;51.148;14.068;2023-05-29T02:38:43;98573.38;;;3.79;100.00
52319;BME280;38258;51.148;14.068;2023-05-29T02:41:10;98572.50;;;3.74;100.00
52319;BME280;38258;51.148;14.068;2023-05-29T02:43:37;98600.13;;;3.89;100.00
52319;BME280;38258;51.148;14.068;2023-05-29T02:46:04;98601.00;;;3.88;100.00
52319;BME280;38258;51.148;14.068;2023-05-29T02:48:31;98597.53;;;3.81;100.00
52319;BME280;38258;51.148;14.068;2023-05-29T02:51:01;98560.41;;;3.61;100.00
52319;BME280;38258;51.148;14.068;2023-05-29T02:53:27;98567.25;;;3.56;100.00
52319;BME280;38258;51.148;14.068;2023-05-29T02:55:54;98599.22;;;3.72;100.00
52319;BME280;38258;51.148;14.068;2023-05-29T02:58:21;98599.25;;;3.73;100.00
52319;BME280;38258;51.148;14.068;2023-05-29T03:00:48;98575.88;;;3.54;100.00
52319;BME280;38258;51.148;14.068;2023-05-29T03:03:15;98595.78;;;3.66;100.00
52319;BME280;38258;51.148;14.068;2023-05-29T03:05:42;98586.28;;;3.61;100.00
52319;BME280;38258;51.148;14.068;2023-05-29T03:08:10;98599.25;;;3.73;100.00
52319;BME280;38258;51.148;14.068;2023-05-29T03:10:38;98617.34;;;3.75;100.00
52319;BME280;38258;51.148;14.068;2023-05-29T03:13:06;98620.78;;;3.74;100.00
52319;BME280;38258;51.148;14.068;2023-05-29T03:15:36;98607.81;;;3.58;100.00
52319;BME280;38258;51.148;14.068;2023-05-29T03:18:03;98613.88;;;3.65;100.00
52319;BME280;38258;51.148;14.068;2023-05-29T03:20:31;98613.88;;;3.76;100.00
52319;BME280;38258;51.148;14.068;2023-05-29T03:22:59;98616.47;;;3.79;100.00
52319;BME280;38258;51.148;14.068;2023-05-29T03:25:28;98615.66;;;3.92;100.00
52319;BME280;38258;51.148;14.068;2023-05-29T03:27:56;98607.06;;;4.06;100.00
52319;BME280;38258;51.148;14.068;2023-05-29T03:30:24;98600.19;;;4.11;100.00
52319;BME280;38258;51.148;14.068;2023-05-29T03:32:52;98604.50;;;4.17;100.00
52319;BME280;38258;51.148;14.068;2023-05-29T03:35:27;98603.63;;;4.21;100.00
52319;BME280;38258;51.148;14.068;2023-05-29T03:37:54;98588.94;;;4.15;100.00
52319;BME280;38258;51.148;14.068;2023-05-29T03:40:21;98589.84;;;4.23;100.00
52319;BME280;38258;51.148;14.068;2023-05-29T03:42:49;98595.00;;;4.27;100.00
52319;BME280;38258;51.148;14.068;2023-05-29T03:45:16;98577.75;;;4.21;100.00
52319;BME280;38258;51.148;14.068;2023-05-29T03:47:43;98614.00;;;4.49;100.00
52319;BME280;38258;51.148;14.068;2023-05-29T03:50:10;98615.72;;;4.59;100.00
52319;BME280;38258;51.148;14.068;2023-05-29T03:52:41;98589.81;;;4.45;100.00
52319;BME280;38258;51.148;14.068;2023-05-29T03:55:09;98610.53;;;4.58;100.00
52319;BME280;38258;51.148;14.068;2023-05-29T03:57:38;98595.84;;;4.66;100.00
52319;BME280;38258;51.148;14.068;2023-05-29T04:00:09;98591.50;;;4.77;100.00
52319;BME280;38258;51.148;14.068;2023-05-29T04:02:39;98613.09;;;4.95;100.00
52319;BME280;38258;51.148;14.068;2023-05-29T04:05:07;98606.16;;;5.05;100.00
52319;BME280;38258;51.148;14.068;2023-05-29T04:07:35;98609.56;;;5.16;100.00
52319;BME280;38258;51.148;14.068;2023-05-29T04:10:04;98612.97;;;5.34;100.00
52319;BME280;38258;51.148;14.068;2023-05-29T04:12:33;98620.72;;;5.46;100.00
52319;BME280;38258;51.148;14.068;2023-05-29T04:15:01;98606.84;;;5.49;100.00
52319;BME280;38258;51.148;14.068;2023-05-29T04:17:30;98614.56;;;5.64;100.00
52319;BME280;38258;51.148;14.068;2023-05-29T04:19:57;98625.75;;;5.76;100.00
52319;BME280;38258;51.148;14.068;2023-05-29T04:22:25;98611.03;;;5.78;100.00
52319;BME280;38258;51.148;14.068;2023-05-29T04:24:52;98625.63;;;6.01;100.00
52319;BME280;38258;51.148;14.068;2023-05-29T04:27:21;98620.44;;;6.07;100.00
52319;BME280;38258;51.148;14.068;2023-05-29T04:29:48;98633.34;;;6.21;100.00
52319;BME280;38258;51.148;14.068;2023-05-29T04:32:15;98626.41;;;6.25;100.00
52319;BME280;38258;51.148;14.068;2023-05-29T04:34:43;98630.63;;;6.36;100.00
52319;BME280;38258;51.148;14.068;2023-05-29T04:37:12;98634.84;;;6.50;100.00
52319;BME280;38258;51.148;14.068;2023-05-29T04:45:29;98644.63;;;7.20;100.00
52319;BME280;38258;51.148;14.068;2023-05-29T05:11:11;98649.72;;;10.42;100.00
52319;BME280;38258;51.148;14.068;2023-05-29T05:13:39;98653.28;;;10.74;100.00
52319;BME280;38258;51.148;14.068;2023-05-29T05:16:06;98658.84;;;10.96;100.00
52319;BME280;38258;51.148;14.068;2023-05-29T05:18:33;98647.59;;;11.27;100.00
52319;BME280;38258;51.148;14.068;2023-05-29T05:21:03;98652.06;;;11.55;100.00
52319;BME280;38258;51.148;14.068;2023-05-29T05:23:33;98651.47;;;11.76;100.00
52319;BME280;38258;51.148;14.068;2023-05-29T05:26:00;98650.00;;;11.97;100.00
52319;BME280;38258;51.148;14.068;2023-05-29T05:28:28;98647.81;;;12.13;100.00
52319;BME280;38258;51.148;14.068;2023-05-29T05:30:55;98653.28;;;12.34;100.00
52319;BME280;38258;51.148;14.068;2023-05-29T05:33:22;98651.59;;;12.59;100.00
52319;BME280;38258;51.148;14.068;2023-05-29T05:35:49;98646.66;;;12.77;100.00
52319;BME280;38258;51.148;14.068;2023-05-29T05:38:15;98648.03;;;12.89;100.00
52319;BME280;38258;51.148;14.068;2023-05-29T05:40:43;98649.31;;;13.03;100.00
52319;BME280;38258;51.148;14.068;2023-05-29T05:43:15;98648.28;;;13.07;100.00
52319;BME280;38258;51.148;14.068;2023-05-29T05:46:06;98651.94;;;13.28;100.00
52319;BME280;38258;51.148;14.068;2023-05-29T05:48:35;98660.06;;;13.47;100.00
52319;BME280;38258;51.148;14.068;2023-05-29T05:51:01;98659.47;;;13.64;100.00
52319;BME280;38258;51.148;14.068;2023-05-29T05:53:29;98652.59;;;13.84;100.00
52319;BME280;38258;51.148;14.068;2023-05-29T05:55:56;98660.25;;;13.90;100.00
52319;BME280;38258;51.148;14.068;2023-05-29T05:58:24;98663.78;;;14.13;100.00
52319;BME280;38258;51.148;14.068;2023-05-29T06:00:51;98662.91;;;14.12;100.00
52319;BME280;38258;51.148;14.068;2023-05-29T06:03:20;98666.47;;;14.11;100.00
52319;BME280;38258;51.148;14.068;2023-05-29T06:05:57;98667.19;;;14.39;100.00
52319;BME280;38258;51.148;14.068;2023-05-29T06:08:23;98664.75;;;14.33;100.00
52319;BME280;38258;51.148;14.068;2023-05-29T06:10:52;98673.66;;;14.52;100.00
52319;BME280;38258;51.148;14.068;2023-05-29T06:13:19;98673.53;;;14.55;99.55
52319;BME280;38258;51.148;14.068;2023-05-29T06:15:50;98669.66;;;14.64;94.76
52319;BME280;38258;51.148;14.068;2023-05-29T06:18:17;98671.78;;;14.78;93.49
52319;BME280;38258;51.148;14.068;2023-05-29T06:20:45;98680.28;;;14.85;90.36
52319;BME280;38258;51.148;14.068;2023-05-29T06:23:12;98676.16;;;15.00;87.36
52319;BME280;38258;51.148;14.068;2023-05-29T06:25:39;98679.09;;;15.13;88.98
52319;BME280;38258;51.148;14.068;2023-05-29T06:28:06;98684.66;;;15.07;91.49
52319;BME280;38258;51.148;14.068;2023-05-29T06:30:33;98681.03;;;15.09;89.70
52319;BME280;38258;51.148;14.068;2023-05-29T06:33:04;98679.38;;;15.27;87.90
52319;BME280;38258;51.148;14.068;2023-05-29T06:35:31;98689.38;;;15.40;85.01
52319;BME280;38258;51.148;14.068;2023-05-29T06:37:59;98681.81;;;15.53;82.99
52319;BME280;38258;51.148;14.068;2023-05-29T06:40:26;98687.47;;;15.64;83.50
52319;BME280;38258;51.148;14.068;2023-05-29T06:42:53;98689.09;;;15.67;80.07
52319;BME280;38258;51.148;14.068;2023-05-29T06:45:34;98694.56;;;15.83;77.22
52319;BME280;38258;51.148;14.068;2023-05-29T06:48:00;98696.00;;;15.90;71.30
52319;BME280;38258;51.148;14.068;2023-05-29T06:50:27;98694.94;;;16.14;66.20
52319;BME280;38258;51.148;14.068;2023-05-29T06:53:00;98692.75;;;16.23;63.57
52319;BME280;38258;51.148;14.068;2023-05-29T06:55:41;98702.81;;;16.34;59.00
52319;BME280;38258;51.148;14.068;2023-05-29T06:58:07;98703.38;;;16.41;58.61
52319;BME280;38258;51.148;14.068;2023-05-29T07:00:34;98708.19;;;16.70;57.04
52319;BME280;38258;51.148;14.068;2023-05-29T07:03:25;98704.69;;;16.69;51.52
52319;BME280;38258;51.148;14.068;2023-05-29T07:05:53;98710.06;;;16.85;48.81
52319;BME280;38258;51.148;14.068;2023-05-29T07:08:22;98710.59;;;17.11;51.45
52319;BME280;38258;51.148;14.068;2023-05-29T07:10:51;98709.19;;;17.39;53.36
52319;BME280;38258;51.148;14.068;2023-05-29T07:13:19;98717.47;;;17.33;49.61
52319;BME280;38258;51.148;14.068;2023-05-29T07:15:48;98706.56;;;17.21;48.83
52319;BME280;38258;51.148;14.068;2023-05-29T07:18:15;98706.88;;;17.50;49.25
52319;BME280;38258;51.148;14.068;2023-05-29T07:20:42;98718.91;;;18.07;53.13
52319;BME280;38258;51.148;14.068;2023-05-29T07:23:12;98709.03;;;17.60;47.21
52319;BME280;38258;51.148;14.068;2023-05-29T07:25:40;98713.00;;;17.85;50.67
52319;BME280;38258;51.148;14.068;2023-05-29T07:28:09;98712.06;;;17.86;46.87
52319;BME280;38258;51.148;14.068;2023-05-29T07:30:36;98718.84;;;18.25;50.30
52319;BME280;38258;51.148;14.068;2023-05-29T07:33:04;98724.06;;;18.43;46.74
52319;BME280;38258;51.148;14.068;2023-05-29T07:35:31;98721.84;;;18.67;47.50
52319;BME280;38258;51.148;14.068;2023-05-29T07:38:00;98721.72;;;18.20;45.74
52319;BME280;38258;51.148;14.068;2023-05-29T07:40:26;98726.03;;;18.23;43.83
52319;BME280;38258;51.148;14.068;2023-05-29T07:42:57;98732.44;;;18.99;48.40
52319;BME280;38258;51.148;14.068;2023-05-29T07:45:33;98728.63;;;19.19;45.69
52319;BME280;38258;51.148;14.068;2023-05-29T07:48:00;98728.94;;;18.67;43.30
52319;BME280;38258;51.148;14.068;2023-05-29T07:50:28;98731.47;;;19.16;45.01
52319;BME280;38258;51.148;14.068;2023-05-29T07:52:54;98732.84;;;18.91;43.68
52319;BME280;38258;51.148;14.068;2023-05-29T07:55:23;98737.78;;;19.14;43.83
52319;BME280;38258;51.148;14.068;2023-05-29T07:57:49;98741.00;;;19.49;43.93
52319;BME280;38258;51.148;14.068;2023-05-29T08:00:18;98746.25;;;19.66;44.33
52319;BME280;38258;51.148;14.068;2023-05-29T08:02:45;98735.81;;;18.85;41.98
52319;BME280;38258;51.148;14.068;2023-05-29T08:05:30;98746.06;;;19.07;43.33
52319;BME280;38258;51.148;14.068;2023-05-29T08:07:57;98740.63;;;19.56;42.09
52319;BME280;38258;51.148;14.068;2023-05-29T08:10:26;98745.53;;;19.33;41.83
52319;BME280;38258;51.148;14.068;2023-05-29T08:12:53;98746.63;;;19.29;43.11
52319;BME280;38258;51.148;14.068;2023-05-29T08:15:21;98736.25;;;19.40;41.94
52319;BME280;38258;51.148;14.068;2023-05-29T08:17:49;98750.16;;;20.61;43.54
52319;BME280;38258;51.148;14.068;2023-05-29T08:20:16;98749.97;;;20.77;42.48
52319;BME280;38258;51.148;14.068;2023-05-29T08:22:43;98750.97;;;20.05;39.67
52319;BME280;38258;51.148;14.068;2023-05-29T08:25:10;98747.53;;;21.16;44.45
52319;BME280;38258;51.148;14.068;2023-05-29T08:27:37;98746.94;;;21.52;41.81
52319;BME280;38258;51.148;14.068;2023-05-29T08:30:05;98755.72;;;21.93;38.11
52319;BME280;38258;51.148;14.068;2023-05-29T08:32:33;98745.53;;;21.73;40.14
52319;BME280;38258;51.148;14.068;2023-05-29T08:35:00;98741.16;;;20.92;40.14
52319;BME280;38258;51.148;14.068;2023-05-29T08:37:27;98737.91;;;22.06;40.56
52319;BME280;38258;51.148;14.068;2023-05-29T08:39:54;98739.97;;;20.68;38.72
52319;BME280;38258;51.148;14.068;2023-05-29T08:42:23;98741.38;;;20.88;40.16
52319;BME280;38258;51.148;14.068;2023-05-29T08:44:56;98749.53;;;21.66;37.89
52319;BME280;38258;51.148;14.068;2023-05-29T08:47:26;98743.84;;;21.45;37.97
52319;BME280;38258;51.148;14.068;2023-05-29T08:49:55;98740.09;;;21.35;35.97
52319;BME280;38258;51.148;14.068;2023-05-29T08:52:23;98735.63;;;21.75;36.30
52319;BME280;38258;51.148;14.068;2023-05-29T08:54:52;98745.47;;;22.25;39.44
52319;BME280;38258;51.148;14.068;2023-05-29T08:57:20;98739.16;;;22.52;37.05
52319;BME280;38258;51.148;14.068;2023-05-29T08:59:50;98741.34;;;21.95;35.26
52319;BME280;38258;51.148;14.068;2023-05-29T09:02:17;98746.19;;;21.63;37.74
52319;BME280;38258;51.148;14.068;2023-05-29T09:04:45;98746.72;;;22.83;37.02
52319;BME280;38258;51.148;14.068;2023-05-29T09:07:16;98747.91;;;22.41;35.72
52319;BME280;38258;51.148;14.068;2023-05-29T09:09:44;98747.91;;;22.28;36.68
52319;BME280;38258;51.148;14.068;2023-05-29T09:12:11;98749.88;;;21.74;36.96
52319;BME280;38258;51.148;14.068;2023-05-29T09:14:41;98752.78;;;21.03;35.96
52319;BME280;38258;51.148;14.068;2023-05-29T09:17:10;98752.59;;;21.60;36.74
52319;BME280;38258;51.148;14.068;2023-05-29T09:19:38;98747.88;;;23.52;38.02
52319;BME280;38258;51.148;14.068;2023-05-29T09:22:08;98751.25;;;21.93;36.19
52319;BME280;38258;51.148;14.068;2023-05-29T09:24:37;98755.22;;;22.88;37.93
52319;BME280;38258;51.148;14.068;2023-05-29T09:27:05;98746.75;;;22.33;37.04
52319;BME280;38258;51.148;14.068;2023-05-29T09:29:33;98755.16;;;22.26;37.69
52319;BME280;38258;51.148;14.068;2023-05-29T09:32:00;98755.72;;;21.80;35.92
52319;BME280;38258;51.148;14.068;2023-05-29T09:34:30;98759.22;;;21.67;35.71
52319;BME280;38258;51.148;14.068;2023-05-29T09:37:01;98753.25;;;23.03;35.81
52319;BME280;38258;51.148;14.068;2023-05-29T09:39:34;98751.50;;;22.53;36.51
52319;BME280;38258;51.148;14.068;2023-05-29T09:42:04;98744.97;;;22.70;36.80
52319;BME280;38258;51.148;14.068;2023-05-29T09:44:31;98755.28;;;22.75;36.18
52319;BME280;38258;51.148;14.068;2023-05-29T09:46:58;98749.81;;;22.39;37.17
52319;BME280;38258;51.148;14.068;2023-05-29T09:49:26;98760.38;;;24.33;36.21
52319;BME280;38258;51.148;14.068;2023-05-29T09:51:53;98746.97;;;24.67;37.89
52319;BME280;38258;51.148;14.068;2023-05-29T09:54:20;98761.75;;;23.68;36.25
52319;BME280;38258;51.148;14.068;2023-05-29T09:56:47;98750.59;;;23.75;35.84
52319;BME280;38258;51.148;14.068;2023-05-29T09:59:16;98746.50;;;24.39;35.93
52319;BME280;38258;51.148;14.068;2023-05-29T10:01:44;98751.63;;;23.25;37.20
52319;BME280;38258;51.148;14.068;2023-05-29T10:04:11;98744.31;;;22.16;40.06
52319;BME280;38258;51.148;14.068;2023-05-29T10:06:42;98750.94;;;21.72;40.36
52319;BME280;38258;51.148;14.068;2023-05-29T10:09:12;98744.44;;;22.02;40.85
52319;BME280;38258;51.148;14.068;2023-05-29T10:11:42;98743.25;;;21.67;39.74
52319;BME280;38258;51.148;14.068;2023-05-29T10:14:17;98750.47;;;21.52;41.63
52319;BME280;38258;51.148;14.068;2023-05-29T10:16:46;98744.41;;;22.78;39.25
52319;BME280;38258;51.148;14.068;2023-05-29T10:19:18;98744.28;;;24.90;36.58
52319;BME280;38258;51.148;14.068;2023-05-29T10:21:48;98745.63;;;24.61;37.16
52319;BME280;38258;51.148;14.068;2023-05-29T10:24:16;98741.66;;;22.03;36.50
52319;BME280;38258;51.148;14.068;2023-05-29T10:26:47;98746.50;;;22.49;39.58
52319;BME280;38258;51.148;14.068;2023-05-29T10:29:19;98747.97;;;20.96;38.78
52319;BME280;38258;51.148;14.068;2023-05-29T10:32:01;98751.03;;;20.33;40.00
52319;BME280;38258;51.148;14.068;2023-05-29T10:34:35;98747.44;;;21.84;39.80
52319;BME280;38258;51.148;14.068;2023-05-29T10:37:09;98746.56;;;20.75;41.03
52319;BME280;38258;51.148;14.068;2023-05-29T10:39:39;98746.38;;;20.79;42.69
52319;BME280;38258;51.148;14.068;2023-05-29T10:42:42;98750.28;;;20.31;43.12
52319;BME280;38258;51.148;14.068;2023-05-29T10:45:11;98745.13;;;19.70;43.38
52319;BME280;38258;51.148;14.068;2023-05-29T10:48:36;98744.69;;;20.36;43.16
52319;BME280;38258;51.148;14.068;2023-05-29T10:53:32;98745.75;;;21.02;40.56
52319;BME280;38258;51.148;14.068;2023-05-29T10:55:59;98736.22;;;21.13;40.50
52319;BME280;38258;51.148;14.068;2023-05-29T10:58:30;98735.75;;;20.37;41.96
52319;BME280;38258;51.148;14.068;2023-05-29T11:00:58;98731.69;;;21.81;39.27
52319;BME280;38258;51.148;14.068;2023-05-29T11:03:25;98732.84;;;22.53;37.36
52319;BME280;38258;51.148;14.068;2023-05-29T11:05:56;98729.53;;;22.63;36.99
52319;BME280;38258;51.148;14.068;2023-05-29T11:08:28;98726.81;;;21.47;39.65
52319;BME280;38258;51.148;14.068;2023-05-29T11:10:56;98719.38;;;22.68;37.13
52319;BME280;38258;51.148;14.068;2023-05-29T11:13:31;98728.56;;;22.88;36.40
52319;BME280;38258;51.148;14.068;2023-05-29T11:16:16;98718.47;;;22.56;35.79
52319;BME280;38258;51.148;14.068;2023-05-29T11:18:46;98721.44;;;24.63;35.85
52319;BME280;38258;51.148;14.068;2023-05-29T11:21:30;98711.13;;;26.49;34.47
52319;BME280;38258;51.148;14.068;2023-05-29T11:23:57;98721.84;;;24.47;34.93
52319;BME280;38258;51.148;14.068;2023-05-29T11:26:26;98720.06;;;25.12;34.23
52319;BME280;38258;51.148;14.068;2023-05-29T11:28:53;98715.78;;;24.33;35.43
52319;BME280;38258;51.148;14.068;2023-05-29T11:31:24;98717.41;;;24.80;34.02
52319;BME280;38258;51.148;14.068;2023-05-29T11:33:54;98717.94;;;23.94;34.76
52319;BME280;38258;51.148;14.068;2023-05-29T11:36:25;98709.59;;;24.33;34.92
52319;BME280;38258;51.148;14.068;2023-05-29T11:38:53;98707.28;;;26.11;34.16
52319;BME280;38258;51.148;14.068;2023-05-29T11:41:20;98713.09;;;25.21;34.29
52319;BME280;38258;51.148;14.068;2023-05-29T11:43:56;98718.25;;;24.80;33.38
52319;BME280;38258;51.148;14.068;2023-05-29T11:46:24;98718.47;;;24.89;33.31
52319;BME280;38258;51.148;14.068;2023-05-29T11:48:55;98712.22;;;25.32;32.39
52319;BME280;38258;51.148;14.068;2023-05-29T11:51:25;98714.13;;;25.94;31.72
52319;BME280;38258;51.148;14.068;2023-05-29T11:53:54;98710.31;;;26.18;29.93
52319;BME280;38258;51.148;14.068;2023-05-29T11:56:24;98712.63;;;24.05;34.24
52319;BME280;38258;51.148;14.068;2023-05-29T11:58:57;98718.56;;;21.78;36.15
52319;BME280;38258;51.148;14.068;2023-05-29T12:01:27;98708.94;;;22.89;34.42
52319;BME280;38258;51.148;14.068;2023-05-29T12:03:55;98715.50;;;23.56;34.85
52319;BME280;38258;51.148;14.068;2023-05-29T12:06:32;98713.50;;;24.06;34.72
52319;BME280;38258;51.148;14.068;2023-05-29T12:09:03;98702.59;;;24.64;32.43
52319;BME280;38258;51.148;14.068;2023-05-29T12:11:31;98701.91;;;24.95;32.04
52319;BME280;38258;51.148;14.068;2023-05-29T12:14:00;98695.97;;;25.97;32.89
52319;BME280;38258;51.148;14.068;2023-05-29T12:16:30;98687.03;;;26.89;32.99
52319;BME280;38258;51.148;14.068;2023-05-29T12:19:01;98700.78;;;24.76;34.10
52319;BME280;38258;51.148;14.068;2023-05-29T12:21:28;98690.91;;;24.10;36.31
52319;BME280;38258;51.148;14.068;2023-05-29T12:23:58;98704.94;;;22.33;36.76
52319;BME280;38258;51.148;14.068;2023-05-29T12:26:26;98704.16;;;23.41;34.10
52319;BME280;38258;51.148;14.068;2023-05-29T12:28:56;98702.06;;;22.49;35.86
52319;BME280;38258;51.148;14.068;2023-05-29T12:31:28;98688.97;;;21.96;38.06
52319;BME280;38258;51.148;14.068;2023-05-29T12:34:06;98691.50;;;22.72;36.59
52319;BME280;38258;51.148;14.068;2023-05-29T12:36:33;98686.34;;;22.20;38.48
52319;BME280;38258;51.148;14.068;2023-05-29T12:39:05;98692.94;;;22.65;37.40
52319;BME280;38258;51.148;14.068;2023-05-29T12:41:34;98693.06;;;23.82;36.22
52319;BME280;38258;51.148;14.068;2023-05-29T12:44:03;98679.94;;;24.01;34.85
52319;BME280;38258;51.148;14.068;2023-05-29T12:46:35;98675.03;;;24.52;32.18
52319;BME280;38258;51.148;14.068;2023-05-29T12:49:12;98679.22;;;24.22;34.31
52319;BME280;38258;51.148;14.068;2023-05-29T12:51:40;98685.06;;;23.82;34.93
52319;BME280;38258;51.148;14.068;2023-05-29T12:54:09;98678.19;;;25.02;36.26
52319;BME280;38258;51.148;14.068;2023-05-29T12:56:35;98676.56;;;26.95;36.11
52319;BME280;38258;51.148;14.068;2023-05-29T12:59:02;98669.47;;;23.41;35.62
52319;BME280;38258;51.148;14.068;2023-05-29T13:01:28;98685.03;;;23.48;39.07
52319;BME280;38258;51.148;14.068;2023-05-29T13:03:55;98671.31;;;22.19;40.00
52319;BME280;38258;51.148;14.068;2023-05-29T13:06:23;98675.69;;;22.20;41.50
52319;BME280;38258;51.148;14.068;2023-05-29T13:08:50;98671.75;;;21.22;38.69
52319;BME280;38258;51.148;14.068;2023-05-29T13:11:18;98672.13;;;21.56;43.45
52319;BME280;38258;51.148;14.068;2023-05-29T13:13:45;98667.09;;;21.52;40.46
52319;BME280;38258;51.148;14.068;2023-05-29T13:16:12;98657.31;;;21.39;40.39
52319;BME280;38258;51.148;14.068;2023-05-29T13:18:38;98659.25;;;22.26;41.07
52319;BME280;38258;51.148;14.068;2023-05-29T13:21:05;98649.81;;;24.66;37.65
52319;BME280;38258;51.148;14.068;2023-05-29T13:23:33;98660.13;;;24.71;34.82
52319;BME280;38258;51.148;14.068;2023-05-29T13:25:59;98649.66;;;25.12;35.73
52319;BME280;38258;51.148;14.068;2023-05-29T13:28:26;98652.16;;;22.76;37.58
52319;BME280;38258;51.148;14.068;2023-05-29T13:30:53;98655.91;;;24.01;35.81
52319;BME280;38258;51.148;14.068;2023-05-29T13:33:19;98646.06;;;24.25;34.99
52319;BME280;38258;51.148;14.068;2023-05-29T13:35:46;98644.06;;;24.38;36.49
52319;BME280;38258;51.148;14.068;2023-05-29T13:38:13;98645.41;;;22.58;36.73